Search for airport 
image banner adimage banner adimage banner ad
image banner ad

4CA3 - Camp Parks

Located in Pleasanton, United States

ICAO - 4CA3, IATA -

Data provided by Airmate  

General information

Coordinates: N37°42'30" W121°53'34"
Elevation is 361 feet MSL.
Magnetic variation is 16° East
View others Airports in California

Operational data

Special qualification required
Current time UTC:
Current local time:
Weather at : KLVK - Livermore Muni ( 7 km )
METAR: KLVK 270353Z 30009KT 10SM CLR 20/10 A2990 RMK AO2 SLP120 T02000100
TAF: KLVK 262340Z 2700/2724 28011KT P6SM SCT200 FM270200 29008KT P6SM BKN200 FM271000 VRB05KT P6SM VCSH BKN100 BKN200 FM271600 29005KT P6SM SCT100 SCT200 FM272000 29010KT P6SM FEW100 FEW200
View NOTAMs / SUP AIP / TFR affecting this airport [VIEW]
Communications frequencies: [VIEW]

Runways:

Airport contact information

Address: Pleasanton United States

Satellite view of 4CA3